Time;durP1;ratioP1;P1;durP2;ratioP2;P2;SDS_P1;SDS_P2;PMS_P1;PMS_P2;Temp;Humidity;BMP_temperature;BMP_pressure;BME280_temperature;BME280_humidity;BME280_pressure;Samples;Min_cycle;Max_cycle;Signal;HPM_P1;HPM_P2
2021/09/07 00:00:06;;;;;;;7.47;4.60;;;20.60;63.20;;;;;;5034232;28;20036;-69
2021/09/07 00:02:31;;;;;;;7.78;4.60;;;20.60;63.30;;;;;;5034144;28;20022;-69
2021/09/07 00:04:57;;;;;;;8.75;4.80;;;20.60;63.20;;;;;;5034133;28;20025;-69
2021/09/07 00:07:24;;;;;;;8.13;4.45;;;20.60;63.30;;;;;;5031889;28;20044;-68
2021/09/07 00:09:50;;;;;;;8.15;4.90;;;20.60;63.30;;;;;;5034116;28;20021;-69
2021/09/07 00:12:16;;;;;;;7.90;4.35;;;20.60;63.30;;;;;;5034052;28;20084;-69
2021/09/07 00:14:41;;;;;;;7.32;4.22;;;20.50;63.30;;;;;;5033985;28;20025;-69
2021/09/07 00:17:07;;;;;;;7.55;4.07;;;20.60;63.30;;;;;;5034099;28;20040;-69
2021/09/07 00:19:32;;;;;;;7.72;4.35;;;20.50;63.40;;;;;;5033910;28;20029;-68
2021/09/07 00:21:58;;;;;;;7.70;4.40;;;20.50;63.40;;;;;;5034143;28;20521;-68
2021/09/07 00:24:23;;;;;;;7.40;4.40;;;20.50;63.40;;;;;;5033893;28;20033;-68
2021/09/07 00:26:49;;;;;;;8.13;4.22;;;20.50;63.40;;;;;;5033805;28;20037;-69
2021/09/07 00:29:15;;;;;;;8.48;4.65;;;20.50;63.50;;;;;;5033754;28;20021;-69
2021/09/07 00:31:41;;;;;;;7.75;4.38;;;20.50;63.50;;;;;;5033603;28;20036;-69
2021/09/07 00:34:06;;;;;;;8.80;4.63;;;20.50;63.40;;;;;;5049028;28;20021;-68
2021/09/07 00:36:32;;;;;;;7.15;4.07;;;20.50;63.40;;;;;;5033543;28;20095;-69
2021/09/07 00:38:57;;;;;;;6.80;3.85;;;20.50;63.50;;;;;;5033433;28;20128;-69
2021/09/07 00:41:23;;;;;;;7.25;4.28;;;20.40;63.50;;;;;;5033424;28;20036;-68
2021/09/07 00:43:48;;;;;;;7.47;4.13;;;20.50;63.50;;;;;;5033446;28;20382;-69
2021/09/07 00:46:14;;;;;;;7.45;4.32;;;20.50;63.50;;;;;;5033245;28;20454;-68
2021/09/07 00:48:39;;;;;;;7.25;4.00;;;20.50;63.50;;;;;;5033655;28;20029;-69
2021/09/07 00:51:05;;;;;;;6.72;3.70;;;20.50;63.40;;;;;;5033300;28;20021;-68
2021/09/07 00:53:31;;;;;;;8.05;4.72;;;20.50;63.50;;;;;;5048688;28;20071;-69
2021/09/07 00:55:58;;;;;;;7.07;4.28;;;20.50;63.40;;;;;;5033383;28;20026;-70
2021/09/07 00:58:29;;;;;;;6.70;4.05;;;20.40;63.50;;;;;;5033437;28;20025;-69
2021/09/07 01:00:54;;;;;;;8.25;4.78;;;20.40;63.50;;;;;;5031742;28;20025;-69
2021/09/07 01:03:20;;;;;;;7.70;4.18;;;20.40;63.50;;;;;;5033282;28;20078;-68
2021/09/07 01:05:47;;;;;;;7.85;4.47;;;20.40;63.40;;;;;;5032901;28;20126;-68
2021/09/07 01:08:14;;;;;;;7.28;3.97;;;20.40;63.50;;;;;;5032989;28;20173;-68
2021/09/07 01:10:39;;;;;;;7.72;4.13;;;20.40;63.30;;;;;;5033009;28;20030;-69
2021/09/07 01:13:05;;;;;;;7.45;4.20;;;20.40;63.40;;;;;;5032922;28;20030;-68
2021/09/07 01:15:31;;;;;;;7.32;4.53;;;20.40;63.50;;;;;;5032887;28;20022;-68
2021/09/07 01:17:56;;;;;;;7.43;3.88;;;20.40;63.40;;;;;;5032719;28;20025;-69
2021/09/07 01:20:22;;;;;;;8.07;4.00;;;20.40;63.50;;;;;;5032868;28;20026;-69
2021/09/07 01:22:47;;;;;;;7.97;4.53;;;20.40;63.50;;;;;;5032916;28;20109;-68
2021/09/07 01:25:13;;;;;;;7.95;4.70;;;20.40;63.50;;;;;;5032814;28;20030;-69
2021/09/07 01:27:38;;;;;;;9.40;5.03;;;20.40;63.50;;;;;;5032739;28;20037;-69
2021/09/07 01:30:04;;;;;;;7.28;4.28;;;20.40;63.40;;;;;;5032622;28;20022;-68
2021/09/07 01:32:30;;;;;;;7.38;4.07;;;20.40;63.60;;;;;;5032716;28;20033;-69
2021/09/07 01:34:56;;;;;;;8.93;4.43;;;20.40;63.60;;;;;;5032894;28;20469;-69
2021/09/07 01:37:21;;;;;;;8.07;4.30;;;20.40;63.60;;;;;;5047771;28;20057;-68
2021/09/07 01:39:47;;;;;;;8.98;4.40;;;20.40;63.60;;;;;;5033274;28;20032;-69
2021/09/07 01:42:13;;;;;;;8.60;4.93;;;20.40;63.60;;;;;;5031354;28;20448;-69
2021/09/07 01:44:41;;;;;;;8.88;4.25;;;20.30;63.60;;;;;;5032611;28;20057;-68
2021/09/07 01:47:09;;;;;;;7.72;4.35;;;20.40;63.60;;;;;;5032640;28;20037;-68
2021/09/07 01:49:34;;;;;;;7.55;4.15;;;20.30;63.60;;;;;;5032595;28;20064;-69
2021/09/07 01:52:12;;;;;;;8.85;4.60;;;20.30;63.70;;;;;;5032647;28;20053;-69
2021/09/07 01:54:45;;;;;;;8.05;4.75;;;20.30;63.70;;;;;;5032515;28;20045;-69
2021/09/07 01:57:12;;;;;;;8.15;4.40;;;20.30;63.70;;;;;;5047761;28;20037;-69
2021/09/07 01:59:37;;;;;;;6.85;3.92;;;20.30;63.70;;;;;;5032500;28;20053;-69
2021/09/07 02:02:03;;;;;;;7.63;4.05;;;20.30;63.70;;;;;;5032558;28;20417;-68
2021/09/07 02:04:29;;;;;;;7.85;4.43;;;20.30;63.70;;;;;;5032510;28;20022;-69
2021/09/07 02:06:54;;;;;;;7.13;4.25;;;20.30;63.70;;;;;;5032377;28;20107;-69
2021/09/07 02:09:20;;;;;;;9.15;4.88;;;20.30;63.70;;;;;;5032416;28;20535;-69
2021/09/07 02:11:46;;;;;;;7.53;4.50;;;20.20;63.70;;;;;;5032326;28;20101;-68
2021/09/07 02:14:11;;;;;;;8.07;3.90;;;20.30;63.80;;;;;;5032423;28;20419;-69
2021/09/07 02:16:37;;;;;;;7.10;4.43;;;20.20;63.80;;;;;;5032464;28;20108;-69
2021/09/07 02:19:03;;;;;;;8.98;4.50;;;20.20;63.80;;;;;;5032458;28;20401;-69
2021/09/07 02:21:29;;;;;;;7.30;4.15;;;20.20;63.80;;;;;;5032325;28;20025;-69
2021/09/07 02:23:55;;;;;;;9.10;4.40;;;20.20;63.80;;;;;;5032298;28;20033;-69
2021/09/07 02:26:20;;;;;;;7.45;3.78;;;20.20;63.80;;;;;;5032152;28;20036;-68
2021/09/07 02:28:46;;;;;;;7.95;4.72;;;20.20;63.80;;;;;;5032150;28;20037;-69
2021/09/07 02:31:12;;;;;;;8.07;4.50;;;20.20;63.80;;;;;;5034925;28;20080;-69
2021/09/07 02:33:37;;;;;;;7.72;4.55;;;20.20;63.80;;;;;;5036102;28;20052;-69
2021/09/07 02:36:03;;;;;;;7.68;4.22;;;20.20;63.80;;;;;;5035764;28;20021;-69
2021/09/07 02:38:28;;;;;;;9.02;4.53;;;20.20;63.80;;;;;;5035538;28;20441;-69
2021/09/07 02:40:57;;;;;;;7.53;4.68;;;20.20;63.80;;;;;;5050950;28;20029;-69
2021/09/07 02:43:24;;;;;;;7.53;4.53;;;20.20;63.90;;;;;;5035669;28;20545;-69
2021/09/07 02:45:51;;;;;;;8.35;4.72;;;20.10;63.90;;;;;;5035516;28;20030;-69
2021/09/07 02:48:17;;;;;;;8.13;4.07;;;20.20;63.90;;;;;;5035504;28;20418;-69
2021/09/07 02:50:42;;;;;;;8.55;4.63;;;20.20;63.90;;;;;;5035579;28;20109;-69
2021/09/07 02:53:08;;;;;;;7.63;4.53;;;20.20;63.90;;;;;;5035353;28;20462;-67
2021/09/07 02:55:33;;;;;;;8.13;4.35;;;20.20;63.90;;;;;;5035335;28;20033;-69
2021/09/07 02:57:59;;;;;;;6.88;4.28;;;20.10;63.90;;;;;;5050730;28;20021;-69
2021/09/07 03:00:24;;;;;;;7.20;4.38;;;20.10;63.90;;;;;;5035247;28;20021;-68
2021/09/07 03:02:50;;;;;;;8.73;4.60;;;20.10;63.90;;;;;;5035314;28;20060;-69
2021/09/07 03:05:16;;;;;;;8.30;4.45;;;20.10;63.90;;;;;;5035523;28;20029;-69
2021/09/07 03:07:41;;;;;;;7.13;3.97;;;20.20;63.90;;;;;;5035171;28;20171;-69
2021/09/07 03:10:07;;;;;;;7.63;4.30;;;20.20;63.90;;;;;;5035227;28;20074;-68
2021/09/07 03:12:33;;;;;;;8.15;4.88;;;20.10;63.90;;;;;;5035144;28;20410;-69
2021/09/07 03:14:58;;;;;;;7.93;4.43;;;20.10;63.90;;;;;;5035187;28;20134;-68
2021/09/07 03:17:23;;;;;;;7.93;4.50;;;20.10;63.90;;;;;;5035113;28;20052;-69
2021/09/07 03:19:49;;;;;;;7.90;4.70;;;20.10;63.90;;;;;;5035125;28;20053;-68
2021/09/07 03:22:14;;;;;;;8.05;4.75;;;20.10;63.90;;;;;;5035400;28;20021;-69
2021/09/07 03:24:40;;;;;;;7.05;4.25;;;20.10;63.90;;;;;;5034965;28;20370;-69
2021/09/07 03:27:06;;;;;;;7.55;4.30;;;20.10;63.90;;;;;;5034857;28;20377;-69
2021/09/07 03:29:31;;;;;;;7.75;4.68;;;20.10;63.90;;;;;;5034979;28;20026;-68
2021/09/07 03:31:57;;;;;;;8.18;4.70;;;20.10;63.90;;;;;;5034798;28;20025;-69
2021/09/07 03:34:22;;;;;;;8.73;4.90;;;20.10;63.90;;;;;;5034745;28;20319;-69
2021/09/07 03:36:48;;;;;;;9.90;4.93;;;20.10;63.90;;;;;;5034732;28;20108;-69
2021/09/07 03:39:14;;;;;;;10.05;4.88;;;20.00;63.90;;;;;;5034470;28;20084;-68
2021/09/07 03:41:39;;;;;;;8.85;4.47;;;20.10;63.90;;;;;;5033427;28;20018;-69
2021/09/07 03:44:05;;;;;;;7.78;4.65;;;20.10;63.90;;;;;;5049842;28;20136;-68
2021/09/07 03:46:30;;;;;;;7.78;4.35;;;20.10;64.00;;;;;;5034577;28;20144;-69
2021/09/07 03:48:56;;;;;;;8.82;4.35;;;20.00;63.90;;;;;;5034442;28;20040;-69
2021/09/07 03:51:22;;;;;;;9.68;5.07;;;20.00;63.90;;;;;;5034500;28;20489;-69
2021/09/07 03:53:47;;;;;;;8.40;4.75;;;20.00;63.90;;;;;;5034313;28;20036;-69
2021/09/07 03:56:14;;;;;;;8.88;5.03;;;20.00;63.90;;;;;;5034411;28;20030;-69
2021/09/07 03:58:40;;;;;;;7.88;4.50;;;20.00;64.00;;;;;;5034319;28;20017;-69
2021/09/07 04:01:05;;;;;;;7.82;4.13;;;20.00;64.00;;;;;;5032923;28;20503;-69
2021/09/07 04:03:31;;;;;;;9.10;5.03;;;20.10;64.00;;;;;;5034261;28;20053;-69
2021/09/07 04:05:56;;;;;;;9.25;4.75;;;20.10;63.90;;;;;;5034057;28;20035;-69
2021/09/07 04:08:22;;;;;;;7.82;4.72;;;20.00;64.00;;;;;;5032809;28;20036;-69
2021/09/07 04:10:47;;;;;;;8.23;4.82;;;20.00;64.00;;;;;;5034078;28;20025;-69
2021/09/07 04:13:13;;;;;;;9.15;5.53;;;20.00;63.90;;;;;;5049349;28;20428;-68
2021/09/07 04:15:38;;;;;;;8.20;4.57;;;20.00;64.00;;;;;;5034152;28;20528;-69
2021/09/07 04:18:04;;;;;;;8.65;4.40;;;20.00;64.00;;;;;;5034042;28;20465;-69
2021/09/07 04:20:30;;;;;;;9.75;5.63;;;20.00;63.90;;;;;;5033781;28;20017;-69
2021/09/07 04:22:55;;;;;;;7.55;4.35;;;20.00;63.90;;;;;;5049212;28;20029;-69
2021/09/07 04:25:21;;;;;;;7.20;4.22;;;20.00;64.00;;;;;;5032541;28;20126;-69
2021/09/07 04:27:46;;;;;;;6.95;4.20;;;20.00;64.00;;;;;;5033938;28;20041;-68
2021/09/07 04:30:12;;;;;;;7.18;4.47;;;20.00;63.90;;;;;;5032473;28;20025;-69
2021/09/07 04:32:38;;;;;;;9.50;5.38;;;20.00;63.90;;;;;;5033971;28;20037;-69
2021/09/07 04:35:05;;;;;;;9.43;5.28;;;20.00;63.90;;;;;;5048935;28;20496;-69
2021/09/07 04:37:30;;;;;;;8.02;4.50;;;20.00;63.90;;;;;;5033342;28;20034;-70
2021/09/07 04:39:56;;;;;;;8.23;4.82;;;20.00;64.00;;;;;;5048926;28;20496;-69
2021/09/07 04:42:21;;;;;;;8.05;4.10;;;20.00;64.00;;;;;;5033490;28;20481;-68
2021/09/07 04:44:47;;;;;;;7.80;4.63;;;20.00;63.90;;;;;;5033422;28;20076;-69
2021/09/07 04:47:13;;;;;;;8.57;4.70;;;20.00;63.90;;;;;;5048661;28;20374;-69
2021/09/07 04:49:39;;;;;;;8.45;4.60;;;20.00;63.90;;;;;;5033471;28;20155;-69
2021/09/07 04:52:05;;;;;;;8.60;4.70;;;20.00;63.90;;;;;;5033230;28;20026;-68
2021/09/07 04:54:31;;;;;;;7.72;4.60;;;20.00;63.90;;;;;;5032921;28;20025;-69
2021/09/07 04:56:57;;;;;;;7.88;4.80;;;20.00;64.00;;;;;;5033123;28;20036;-69
2021/09/07 04:59:22;;;;;;;8.20;4.80;;;20.00;63.90;;;;;;5033461;28;20124;-69
2021/09/07 05:01:48;;;;;;;7.80;4.60;;;20.00;64.00;;;;;;5033168;28;20026;-69
2021/09/07 05:04:13;;;;;;;8.07;4.90;;;20.00;63.90;;;;;;5033143;28;20481;-69
2021/09/07 05:06:39;;;;;;;8.35;4.53;;;20.00;64.00;;;;;;5033024;28;20029;-68
2021/09/07 05:09:04;;;;;;;9.30;5.07;;;20.00;64.00;;;;;;5033041;28;20036;-69
2021/09/07 05:11:30;;;;;;;8.50;5.13;;;20.00;64.00;;;;;;5048415;28;20032;-68
2021/09/07 05:13:56;;;;;;;8.07;4.50;;;20.00;64.00;;;;;;5033107;28;20022;-69
2021/09/07 05:16:21;;;;;;;8.02;4.55;;;20.00;64.00;;;;;;5033250;28;20486;-69
2021/09/07 05:18:47;;;;;;;7.30;4.53;;;19.90;64.00;;;;;;5031615;28;20175;-69
2021/09/07 05:21:13;;;;;;;7.63;4.45;;;19.90;64.00;;;;;;5032861;28;20021;-69
2021/09/07 05:23:39;;;;;;;8.52;5.05;;;20.00;64.00;;;;;;5032886;28;20025;-69
2021/09/07 05:26:05;;;;;;;8.30;4.82;;;19.90;64.00;;;;;;5032799;28;20024;-69
2021/09/07 05:28:30;;;;;;;9.10;4.70;;;19.90;63.90;;;;;;5032891;28;20064;-69
2021/09/07 05:30:57;;;;;;;8.10;4.65;;;19.90;63.90;;;;;;5032866;28;20053;-69
2021/09/07 05:33:26;;;;;;;8.05;5.03;;;20.00;63.90;;;;;;5032821;28;20056;-69
2021/09/07 05:35:52;;;;;;;8.63;5.25;;;20.00;63.90;;;;;;5032715;28;20548;-69
2021/09/07 05:38:18;;;;;;;9.13;4.90;;;20.00;63.90;;;;;;5047854;28;20046;-69
2021/09/07 05:40:44;;;;;;;7.18;4.25;;;20.00;63.90;;;;;;5032676;28;20033;-69
2021/09/07 05:43:09;;;;;;;7.95;4.55;;;20.00;63.90;;;;;;5032716;28;20022;-69
2021/09/07 05:45:35;;;;;;;7.97;4.65;;;20.00;63.90;;;;;;5032622;28;20388;-69
2021/09/07 05:48:00;;;;;;;9.10;4.82;;;20.00;63.90;;;;;;5032739;28;20041;-69
2021/09/07 05:50:26;;;;;;;8.05;4.57;;;20.00;63.90;;;;;;5032659;28;20034;-69
2021/09/07 05:52:51;;;;;;;7.57;4.28;;;20.00;63.90;;;;;;5032718;28;20568;-69
2021/09/07 05:55:17;;;;;;;8.63;4.88;;;20.00;63.90;;;;;;5032626;28;20475;-62
2021/09/07 05:57:43;;;;;;;8.05;4.70;;;19.90;63.80;;;;;;5032606;28;20034;-63
2021/09/07 06:00:10;;;;;;;8.35;4.60;;;20.00;63.80;;;;;;5032648;28;20466;-63
2021/09/07 06:02:36;;;;;;;8.48;4.95;;;20.00;63.80;;;;;;5032690;28;20427;-63
2021/09/07 06:05:02;;;;;;;8.40;5.15;;;20.00;63.80;;;;;;5048520;28;20140;-63
2021/09/07 06:07:28;;;;;;;7.53;4.72;;;20.00;63.70;;;;;;5036460;28;20044;-63
2021/09/07 06:09:53;;;;;;;9.15;4.72;;;20.00;63.80;;;;;;5036401;28;20030;-63
2021/09/07 06:12:19;;;;;;;8.50;4.55;;;20.00;63.80;;;;;;5036360;28;20108;-63
2021/09/07 06:14:44;;;;;;;6.78;4.43;;;20.00;63.70;;;;;;5036196;28;20028;-62
2021/09/07 06:17:10;;;;;;;7.82;4.50;;;20.00;63.80;;;;;;5036543;28;20026;-63
2021/09/07 06:19:36;;;;;;;7.43;4.38;;;20.00;63.80;;;;;;5036140;28;20539;-63
2021/09/07 06:22:02;;;;;;;7.45;4.55;;;20.00;63.80;;;;;;5036236;28;20025;-62
2021/09/07 06:24:28;;;;;;;8.45;4.80;;;20.00;63.80;;;;;;5036253;28;20022;-63
2021/09/07 06:26:53;;;;;;;7.57;4.85;;;20.00;63.80;;;;;;5046092;28;20127;-62
2021/09/07 06:29:19;;;;;;;7.45;4.28;;;20.00;63.80;;;;;;5042510;28;20021;-62
2021/09/07 06:31:44;;;;;;;6.93;4.18;;;20.00;63.60;;;;;;5053714;28;20054;-62
2021/09/07 06:34:10;;;;;;;7.15;4.28;;;20.00;63.60;;;;;;5061602;28;20085;-62
2021/09/07 06:36:35;;;;;;;7.63;4.60;;;20.00;63.60;;;;;;5051217;28;20574;-62
2021/09/07 06:39:01;;;;;;;8.52;5.32;;;20.00;63.60;;;;;;5050445;28;20059;-64
2021/09/07 06:41:27;;;;;;;8.80;5.15;;;20.00;63.70;;;;;;5056178;28;20025;-63
2021/09/07 06:43:52;;;;;;;9.50;4.95;;;20.00;63.60;;;;;;5058925;28;20430;-62
2021/09/07 06:46:18;;;;;;;7.82;4.53;;;20.00;63.60;;;;;;5034734;28;20089;-62
2021/09/07 06:48:43;;;;;;;7.53;4.40;;;20.00;63.60;;;;;;5035154;28;20025;-62
2021/09/07 06:51:09;;;;;;;10.00;4.90;;;20.00;63.60;;;;;;5054574;28;20384;-61
2021/09/07 06:53:34;;;;;;;8.95;5.03;;;20.00;63.60;;;;;;5052132;28;20100;-62
2021/09/07 06:56:00;;;;;;;9.65;4.97;;;20.00;63.60;;;;;;5048065;28;20025;-62
2021/09/07 06:58:25;;;;;;;9.75;5.13;;;20.00;63.60;;;;;;5064005;28;20036;-60
2021/09/07 07:00:51;;;;;;;8.85;5.15;;;20.10;63.60;;;;;;5050667;28;20021;-62
2021/09/07 07:03:18;;;;;;;19.55;5.55;;;20.10;63.60;;;;;;5045459;28;20107;-64
2021/09/07 07:05:43;;;;;;;11.27;4.60;;;20.00;63.70;;;;;;5054286;28;20034;-65
2021/09/07 07:08:09;;;;;;;9.68;4.95;;;20.10;63.70;;;;;;5066010;28;20067;-64
2021/09/07 07:10:34;;;;;;;9.98;5.07;;;20.10;63.70;;;;;;5040915;28;20021;-65
2021/09/07 07:13:00;;;;;;;8.45;4.93;;;20.10;63.70;;;;;;5048231;28;20490;-64
2021/09/07 07:15:25;;;;;;;10.27;5.20;;;20.10;63.70;;;;;;5051059;28;20040;-64
2021/09/07 07:17:51;;;;;;;8.90;5.25;;;20.10;63.70;;;;;;5053872;28;20803;-63
2021/09/07 07:20:16;;;;;;;9.88;5.07;;;20.10;63.70;;;;;;5053440;28;20043;-63
2021/09/07 07:22:42;;;;;;;9.38;5.38;;;20.10;63.80;;;;;;5030659;28;20029;-65
2021/09/07 07:25:08;;;;;;;8.55;4.90;;;20.20;63.70;;;;;;5063480;28;20075;-65
2021/09/07 07:27:37;;;;;;;11.45;4.90;;;20.20;63.70;;;;;;5061503;28;20045;-64
2021/09/07 07:30:03;;;;;;;8.38;5.38;;;20.20;63.80;;;;;;5046097;28;20104;-63
2021/09/07 07:32:29;;;;;;;8.82;5.03;;;20.10;63.90;;;;;;5042250;28;20485;-65
2021/09/07 07:34:54;;;;;;;10.85;5.60;;;20.20;63.80;;;;;;5056259;28;20036;-63
2021/09/07 07:37:20;;;;;;;8.15;5.03;;;20.20;63.80;;;;;;5058666;28;20052;-65
2021/09/07 07:39:45;;;;;;;9.93;5.78;;;20.20;63.80;;;;;;5055918;28;20028;-64
2021/09/07 07:42:11;;;;;;;12.77;5.47;;;20.20;63.70;;;;;;5037238;28;20523;-62
2021/09/07 07:44:36;;;;;;;10.27;5.10;;;20.20;63.70;;;;;;5053116;28;20400;-65
2021/09/07 07:47:02;;;;;;;8.32;5.18;;;20.20;63.80;;;;;;5056106;28;20408;-63
2021/09/07 07:49:28;;;;;;;9.07;5.57;;;20.20;63.80;;;;;;5062239;28;20028;-63
2021/09/07 07:51:55;;;;;;;8.10;5.07;;;20.20;63.80;;;;;;5049226;28;20029;-62
2021/09/07 07:54:20;;;;;;;8.27;4.90;;;20.20;63.80;;;;;;5052735;28;20025;-64
2021/09/07 07:56:46;;;;;;;7.68;4.72;;;20.30;63.90;;;;;;5054530;28;20074;-64
2021/09/07 07:59:11;;;;;;;10.30;5.22;;;20.30;63.90;;;;;;5052517;28;20019;-64
2021/09/07 08:01:37;;;;;;;11.35;6.38;;;20.30;63.90;;;;;;5037131;28;20493;-63
2021/09/07 08:04:02;;;;;;;9.63;5.45;;;20.30;63.90;;;;;;5052524;28;20024;-64
2021/09/07 08:06:28;;;;;;;8.70;5.20;;;20.30;63.90;;;;;;5058220;28;20033;-63
2021/09/07 08:08:54;;;;;;;12.63;5.30;;;20.30;63.90;;;;;;5057404;28;20040;-63
2021/09/07 08:11:19;;;;;;;9.25;5.38;;;20.30;63.90;;;;;;5038202;28;20028;-63
2021/09/07 08:13:45;;;;;;;9.23;5.07;;;20.30;63.90;;;;;;5043665;28;20147;-65
2021/09/07 08:16:12;;;;;;;9.52;5.20;;;20.30;63.90;;;;;;5052218;28;20094;-67
2021/09/07 08:18:37;;;;;;;9.60;5.63;;;20.30;64.00;;;;;;5058470;28;20024;-65
2021/09/07 08:21:03;;;;;;;9.60;5.50;;;20.30;64.00;;;;;;5044677;28;20128;-66
2021/09/07 08:23:29;;;;;;;8.15;4.88;;;20.40;64.00;;;;;;5044797;28;20116;-65
2021/09/07 08:25:54;;;;;;;8.70;5.10;;;20.40;63.90;;;;;;5065227;28;20031;-64
2021/09/07 08:28:20;;;;;;;9.20;5.43;;;20.40;63.90;;;;;;5049339;28;20488;-64
2021/09/07 08:30:46;;;;;;;10.45;5.68;;;20.40;63.90;;;;;;5039705;28;20699;-65
2021/09/07 08:33:17;;;;;;;8.32;5.18;;;20.40;63.90;;;;;;5057457;28;20033;-65
2021/09/07 08:35:43;;;;;;;8.55;5.28;;;20.40;63.90;;;;;;5053061;28;20028;-63
2021/09/07 08:38:09;;;;;;;9.90;5.30;;;20.40;64.00;;;;;;5051776;28;20512;-63
2021/09/07 08:40:36;;;;;;;10.13;5.00;;;20.40;63.90;;;;;;5046938;28;20381;-63
2021/09/07 08:43:07;;;;;;;11.45;5.55;;;20.40;63.90;;;;;;5040942;28;20032;-63
2021/09/07 08:45:33;;;;;;;11.68;5.55;;;20.50;63.90;;;;;;5050473;28;20063;-63
2021/09/07 08:48:02;;;;;;;11.30;4.97;;;20.50;63.90;;;;;;5050777;28;20450;-63
2021/09/07 08:50:28;;;;;;;9.35;5.43;;;20.50;63.90;;;;;;5047415;28;20028;-64
2021/09/07 08:53:01;;;;;;;9.48;5.22;;;20.50;63.90;;;;;;5044458;28;20492;-64
2021/09/07 08:55:28;;;;;;;9.80;5.35;;;20.50;63.80;;;;;;5051724;28;20048;-61
2021/09/07 08:57:54;;;;;;;11.25;5.25;;;20.50;63.90;;;;;;5046804;28;20152;-63
2021/09/07 09:00:27;;;;;;;8.63;5.35;;;20.50;63.90;;;;;;5027173;28;20495;-63
2021/09/07 09:02:53;;;;;;;8.47;5.00;;;20.50;63.90;;;;;;5023341;28;20029;-62
2021/09/07 09:05:30;;;;;;;8.00;5.00;;;20.50;63.80;;;;;;5032138;28;20473;-62
2021/09/07 09:07:57;;;;;;;9.32;5.88;;;20.50;63.80;;;;;;5051465;28;20036;-63
2021/09/07 09:10:23;;;;;;;12.32;5.63;;;20.50;63.80;;;;;;5045088;28;20512;-63
2021/09/07 09:12:49;;;;;;;9.57;5.07;;;20.60;63.80;;;;;;5041245;28;20017;-63
2021/09/07 09:15:19;;;;;;;10.50;5.75;;;20.50;63.70;;;;;;5048237;28;20109;-66
2021/09/07 09:17:45;;;;;;;9.20;5.50;;;20.60;63.80;;;;;;5052219;28;20017;-65
2021/09/07 09:20:17;;;;;;;9.25;5.50;;;20.60;63.70;;;;;;5052319;28;20032;-65
2021/09/07 09:22:44;;;;;;;10.20;5.45;;;20.60;63.70;;;;;;5047719;28;20029;-65
2021/09/07 09:25:26;;;;;;;8.65;4.82;;;20.60;63.70;;;;;;5048935;28;20032;-67
2021/09/07 09:27:54;;;;;;;8.82;4.88;;;20.70;63.80;;;;;;5057010;28;20089;-65
2021/09/07 09:30:25;;;;;;;8.93;5.00;;;20.70;63.70;;;;;;5057351;28;20032;-67
2021/09/07 09:32:51;;;;;;;8.68;5.60;;;20.70;63.60;;;;;;5049650;28;20021;-67
2021/09/07 09:35:17;;;;;;;9.00;5.50;;;20.70;63.70;;;;;;5050729;28;20025;-68
2021/09/07 09:38:05;;;;;;;9.05;5.57;;;20.70;63.60;;;;;;5049505;28;20041;-70
2021/09/07 09:40:33;;;;;;;8.35;4.68;;;20.70;63.70;;;;;;5057605;28;20361;-69
2021/09/07 09:42:59;;;;;;;9.00;4.93;;;20.70;63.70;;;;;;5052457;28;20024;-67
2021/09/07 09:45:29;;;;;;;8.25;5.40;;;20.80;63.60;;;;;;5053391;28;20102;-67
2021/09/07 09:47:56;;;;;;;10.32;4.75;;;20.80;63.60;;;;;;5054530;28;20040;-66
2021/09/07 09:50:23;;;;;;;8.65;4.43;;;20.80;63.50;;;;;;5056797;28;20032;-68
2021/09/07 09:52:50;;;;;;;8.77;4.30;;;20.80;63.40;;;;;;5044093;28;20029;-67
2021/09/07 09:55:17;;;;;;;11.73;5.75;;;20.80;63.40;;;;;;5055750;28;20047;-70
2021/09/07 09:57:43;;;;;;;11.32;4.65;;;20.80;63.40;;;;;;5058698;28;20563;-67
2021/09/07 10:00:11;;;;;;;8.20;5.03;;;20.80;63.40;;;;;;5063010;28;20021;-66
2021/09/07 10:02:37;;;;;;;12.98;5.28;;;20.90;63.40;;;;;;5046554;28;20063;-67
2021/09/07 10:05:03;;;;;;;9.75;5.20;;;20.80;63.30;;;;;;5050695;28;20033;-68
2021/09/07 10:07:29;;;;;;;6.20;3.17;;;20.90;63.20;;;;;;5055451;28;20130;-68
2021/09/07 10:09:57;;;;;;;6.40;3.55;;;20.90;63.10;;;;;;5058926;28;20115;-68
2021/09/07 10:12:27;;;;;;;6.13;3.47;;;20.90;63.10;;;;;;5048446;28;20029;-69
2021/09/07 10:15:07;;;;;;;8.90;4.97;;;21.00;62.90;;;;;;5069455;28;20082;-69
2021/09/07 10:17:53;;;;;;;11.02;6.05;;;21.00;62.90;;;;;;5054344;28;20449;-64
2021/09/07 10:20:48;;;;;;;8.10;4.60;;;21.00;62.80;;;;;;5045029;28;20021;-64
2021/09/07 10:23:29;;;;;;;8.52;4.57;;;21.00;62.90;;;;;;5038935;28;20058;-67
2021/09/07 10:25:59;;;;;;;10.60;5.63;;;21.00;62.80;;;;;;5055496;28;20440;-67
2021/09/07 10:28:43;;;;;;;10.25;4.53;;;21.00;62.70;;;;;;5055667;28;20044;-68
2021/09/07 10:31:14;;;;;;;8.35;4.25;;;21.00;62.60;;;;;;5044745;28;20039;-69
2021/09/07 10:33:52;;;;;;;9.35;5.30;;;21.00;62.60;;;;;;5058336;28;20039;-69
2021/09/07 10:36:22;;;;;;;10.27;5.45;;;21.00;62.50;;;;;;5061768;28;20021;-69
2021/09/07 10:38:53;;;;;;;11.88;5.55;;;21.00;62.40;;;;;;5056797;28;20075;-70
2021/09/07 10:41:35;;;;;;;8.45;5.55;;;21.10;62.40;;;;;;5043706;28;20115;-72
2021/09/07 10:44:02;;;;;;;8.63;5.40;;;21.10;62.20;;;;;;5063242;28;20097;-69
2021/09/07 10:47:01;;;;;;;11.27;6.32;;;21.10;61.70;;;;;;5062627;28;20095;-69
2021/09/07 10:49:45;;;;;;;10.85;6.25;;;21.10;62.10;;;;;;5029819;28;20076;-70
2021/09/07 10:52:13;;;;;;;10.00;5.60;;;21.20;61.90;;;;;;5035265;28;20025;-71
2021/09/07 10:54:46;;;;;;;9.77;5.38;;;21.20;61.80;;;;;;5057642;28;20036;-72
2021/09/07 10:57:52;;;;;;;9.40;4.82;;;21.20;61.80;;;;;;5057729;28;20467;-69
2021/09/07 11:00:23;;;;;;;11.20;5.57;;;21.20;61.70;;;;;;5052167;28;20029;-70
2021/09/07 11:02:49;;;;;;;9.38;5.32;;;21.30;61.80;;;;;;5044491;28;20092;-71
2021/09/07 11:05:17;;;;;;;7.93;4.63;;;21.30;61.70;;;;;;5052188;28;20100;-69
2021/09/07 11:07:45;;;;;;;9.07;4.30;;;21.40;61.60;;;;;;5053090;28;20532;-71
2021/09/07 11:10:17;;;;;;;8.95;5.13;;;21.40;61.40;;;;;;5050894;28;20029;-72
2021/09/07 11:13:16;;;;;;;12.07;5.30;;;21.40;61.40;;;;;;5045091;28;20029;-71
2021/09/07 11:15:43;;;;;;;11.77;5.18;;;21.50;61.20;;;;;;5030734;28;20037;-72
2021/09/07 11:18:14;;;;;;;10.00;6.25;;;21.60;61.10;;;;;;5052917;28;20044;-67
2021/09/07 11:20:42;;;;;;;10.25;4.50;;;21.60;60.90;;;;;;5047107;28;20480;-69
2021/09/07 11:23:19;;;;;;;9.82;5.35;;;21.60;60.90;;;;;;5049578;28;20025;-72
2021/09/07 11:25:57;;;;;;;11.05;5.47;;;21.70;60.80;;;;;;5053645;28;20035;-70
2021/09/07 11:28:22;;;;;;;14.32;5.80;;;21.70;60.70;;;;;;5053751;28;20083;-73
2021/09/07 11:30:52;;;;;;;11.35;4.57;;;21.70;60.70;;;;;;5040460;28;20024;-71
2021/09/07 11:33:23;;;;;;;11.10;5.10;;;21.80;60.50;;;;;;5047186;28;20044;-73
2021/09/07 11:35:54;;;;;;;8.00;4.53;;;21.80;60.40;;;;;;5044135;28;20025;-73
2021/09/07 11:38:25;;;;;;;10.05;5.32;;;21.90;60.30;;;;;;5050538;28;20052;-72
2021/09/07 11:40:53;;;;;;;9.75;4.82;;;22.00;60.10;;;;;;5048338;28;20215;-72
2021/09/07 11:43:39;;;;;;;8.98;5.25;;;22.00;60.00;;;;;;5059522;28;20115;-72
2021/09/07 11:46:37;;;;;;;9.32;4.97;;;22.00;59.90;;;;;;5055504;28;20103;-72
2021/09/07 11:49:11;;;;;;;6.95;4.28;;;22.10;59.70;;;;;;5057393;28;20087;-74
2021/09/07 11:51:42;;;;;;;6.55;3.63;;;22.20;59.40;;;;;;5037864;28;20103;-69
2021/09/07 11:54:09;;;;;;;8.98;4.38;;;22.20;59.30;;;;;;5057679;28;20037;-73
2021/09/07 11:56:38;;;;;;;8.48;4.18;;;22.20;59.40;;;;;;5052752;28;20025;-68
2021/09/07 11:59:10;;;;;;;9.70;5.22;;;22.20;59.30;;;;;;5053339;28;20086;-70
2021/09/07 12:01:43;;;;;;;11.65;6.05;;;22.30;58.90;;;;;;5055803;28;20103;-69
2021/09/07 12:04:13;;;;;;;11.63;4.68;;;22.40;58.80;;;;;;5055003;28;20025;-68
2021/09/07 12:06:47;;;;;;;8.98;5.45;;;22.40;58.70;;;;;;5053703;28;20420;-68
2021/09/07 12:09:22;;;;;;;12.75;4.72;;;22.50;58.60;;;;;;5051710;28;20028;-69
2021/09/07 12:12:03;;;;;;;7.60;4.53;;;22.50;58.50;;;;;;5050915;28;20033;-69
2021/09/07 12:14:45;;;;;;;8.75;5.03;;;22.50;58.50;;;;;;5054428;28;20020;-69
2021/09/07 12:17:15;;;;;;;7.53;4.13;;;22.60;58.50;;;;;;5054956;28;20111;-70
2021/09/07 12:19:47;;;;;;;14.48;3.67;;;22.60;58.30;;;;;;5056082;28;20074;-70
2021/09/07 12:22:25;;;;;;;8.85;4.30;;;22.60;58.20;;;;;;5068351;28;20074;-71
2021/09/07 12:25:06;;;;;;;11.60;4.97;;;22.70;58.10;;;;;;5058915;28;20020;-70
2021/09/07 12:27:53;;;;;;;10.63;5.43;;;22.80;57.80;;;;;;5057646;28;20098;-69
2021/09/07 12:30:27;;;;;;;10.20;4.72;;;22.80;57.90;;;;;;5039221;28;20044;-69
2021/09/07 12:33:18;;;;;;;4.47;2.70;;;22.90;57.70;;;;;;5056415;28;20107;-70
2021/09/07 12:35:54;;;;;;;9.82;5.65;;;22.90;57.50;;;;;;5054601;28;20028;-69
2021/09/07 12:38:25;;;;;;;9.63;5.43;;;23.00;56.80;;;;;;5050805;28;20481;-68
2021/09/07 12:40:53;;;;;;;11.38;5.65;;;23.10;57.00;;;;;;5052925;28;20040;-70
2021/09/07 12:43:21;;;;;;;12.98;5.82;;;23.20;56.20;;;;;;5051864;28;20033;-69
2021/09/07 12:45:50;;;;;;;9.60;5.80;;;23.20;56.70;;;;;;5050516;28;20473;-68
2021/09/07 12:48:16;;;;;;;11.07;6.85;;;23.20;56.70;;;;;;5051616;28;20067;-69